Time;durP1;ratioP1;P1;durP2;ratioP2;P2;SDS_P1;SDS_P2;PMS_P1;PMS_P2;Temp;Humidity;BMP_temperature;BMP_pressure;BME280_temperature;BME280_humidity;BME280_pressure;Samples;Min_cycle;Max_cycle;Signal;HPM_P1;HPM_P2
2023/12/14 00:01:49;;;;;;;20.83;11.57;;;;;;;8.88;55.80;100260.97;4916473;29;20528;-75
2023/12/14 00:04:17;;;;;;;21.48;11.60;;;;;;;8.87;56.08;100261.97;4916065;29;20047;-77
2023/12/14 00:06:46;;;;;;;21.13;12.27;;;;;;;8.88;55.69;100266.44;4924245;28;20052;-76
2023/12/14 00:09:14;;;;;;;22.50;12.75;;;;;;;8.86;56.29;100262.97;4910813;29;20060;-76
2023/12/14 00:11:42;;;;;;;20.52;11.70;;;;;;;8.86;56.14;100273.91;4911340;29;20044;-76
2023/12/14 00:14:10;;;;;;;20.27;11.75;;;;;;;8.86;55.93;100273.03;4916955;29;20043;-76
2023/12/14 00:16:39;;;;;;;21.52;12.10;;;;;;;8.85;56.16;100277.63;4914893;29;20040;-76
2023/12/14 00:19:07;;;;;;;20.77;12.02;;;;;;;8.85;56.21;100283.06;4912420;29;20553;-76
2023/12/14 00:21:35;;;;;;;20.25;12.05;;;;;;;8.85;55.68;100288.53;4916465;29;20067;-76
2023/12/14 00:24:04;;;;;;;21.77;11.85;;;;;;;8.86;56.16;100292.13;4948465;28;20047;-76
2023/12/14 00:26:32;;;;;;;19.80;11.02;;;;;;;8.85;55.96;100293.13;4935359;29;20039;-75
2023/12/14 00:29:00;;;;;;;20.13;11.40;;;;;;;8.84;55.97;100300.44;4946138;28;20158;-77
2023/12/14 00:31:29;;;;;;;20.85;11.60;;;;;;;8.84;56.51;100305.91;4947701;28;20051;-76
2023/12/14 00:33:57;;;;;;;19.65;11.32;;;;;;;8.84;56.45;100305.03;4951968;28;20047;-76
2023/12/14 00:36:25;;;;;;;19.27;11.55;;;;;;;8.85;55.93;100309.50;4940786;28;20142;-76
2023/12/14 00:38:54;;;;;;;20.55;12.45;;;;;;;8.82;56.25;100313.38;4950278;28;20461;-77
2023/12/14 00:41:24;;;;;;;21.30;12.13;;;;;;;8.85;56.23;100320.41;4931024;29;20130;-76
2023/12/14 00:43:51;;;;;;;21.90;12.10;;;;;;;8.83;56.12;100323.31;4954355;28;20135;-76
2023/12/14 00:46:20;;;;;;;20.67;11.77;;;;;;;8.85;56.36;100342.25;4947817;28;20559;-77
2023/12/14 00:48:47;;;;;;;20.88;12.38;;;;;;;8.84;56.33;100349.56;4936387;29;20071;-76
2023/12/14 00:51:16;;;;;;;20.30;12.40;;;;;;;8.84;56.30;100348.69;4943347;28;20043;-76
2023/12/14 00:53:43;;;;;;;22.00;12.77;;;;;;;8.84;56.00;100349.56;4950264;28;20053;-77
2023/12/14 00:56:11;;;;;;;20.52;11.27;;;;;;;8.84;56.01;100351.44;4952811;28;20524;-76
2023/12/14 00:58:41;;;;;;;19.63;11.18;;;;;;;8.85;56.13;100356.75;4946369;28;20047;-76
2023/12/14 01:01:09;;;;;;;18.90;11.05;;;;;;;8.83;56.20;100366.97;4932777;28;20050;-76
2023/12/14 01:03:37;;;;;;;18.85;11.13;;;;;;;8.84;55.89;100365.06;4926350;29;20404;-76
2023/12/14 01:06:05;;;;;;;19.85;11.40;;;;;;;8.84;56.25;100379.59;4947016;28;20114;-76
2023/12/14 01:08:33;;;;;;;19.60;10.85;;;;;;;8.83;56.46;100377.88;4946489;28;20042;-76
2023/12/14 01:11:01;;;;;;;19.20;10.98;;;;;;;8.84;56.38;100386.91;4943728;28;20571;-76
2023/12/14 01:13:29;;;;;;;20.27;10.95;;;;;;;8.82;56.54;100389.78;4951530;28;20043;-77
2023/12/14 01:15:58;;;;;;;17.60;10.70;;;;;;;8.84;56.47;100395.09;4951332;28;20057;-76
2023/12/14 01:18:26;;;;;;;17.30;10.57;;;;;;;8.82;56.32;100405.28;4949166;28;20055;-76
2023/12/14 01:20:54;;;;;;;19.35;10.88;;;;;;;8.81;55.98;100407.16;4946276;28;20552;-76
2023/12/14 01:23:22;;;;;;;18.45;10.20;;;;;;;8.81;55.97;100407.16;4936450;29;20102;-76
2023/12/14 01:25:50;;;;;;;16.95;9.90;;;;;;;8.80;56.05;100408.16;4952873;28;20043;-76
2023/12/14 01:28:18;;;;;;;18.25;9.93;;;;;;;8.79;56.14;100409.16;4927930;28;20047;-76
2023/12/14 01:30:46;;;;;;;17.50;9.35;;;;;;;8.78;56.16;100418.31;4961624;28;20539;-77
2023/12/14 01:33:15;;;;;;;16.33;9.95;;;;;;;8.79;56.43;100416.47;4950035;28;20130;-76
2023/12/14 01:35:43;;;;;;;16.35;9.35;;;;;;;8.77;56.21;100426.63;4956113;28;20061;-76
2023/12/14 01:38:11;;;;;;;16.33;10.02;;;;;;;8.76;56.22;100436.69;4941400;28;20042;-76
2023/12/14 01:40:39;;;;;;;17.80;10.45;;;;;;;8.75;55.68;100445.03;4947138;28;20131;-76
2023/12/14 01:43:09;;;;;;;17.45;9.98;;;;;;;8.74;55.50;100449.63;4951368;28;20091;-75
2023/12/14 01:45:38;;;;;;;17.50;10.65;;;;;;;8.70;55.69;100457.19;4936405;28;20047;-76
2023/12/14 01:48:06;;;;;;;17.88;10.48;;;;;;;8.69;55.49;100463.63;4933502;28;20660;-76
2023/12/14 01:50:35;;;;;;;15.45;10.02;;;;;;;8.68;56.02;100469.22;4933878;29;20594;-76
2023/12/14 01:53:03;;;;;;;15.52;9.77;;;;;;;8.65;55.52;100473.09;4934045;28;20051;-75
2023/12/14 01:55:31;;;;;;;16.73;10.00;;;;;;;8.63;55.70;100485.13;4950152;28;20051;-76
2023/12/14 01:58:00;;;;;;;14.60;9.90;;;;;;;8.63;55.77;100488.72;4928575;28;20098;-77
2023/12/14 02:00:37;;;;;;;16.17;10.32;;;;;;;8.62;55.66;100494.31;4938548;28;20085;-77
2023/12/14 02:03:05;;;;;;;18.00;10.48;;;;;;;8.58;55.55;100495.59;4952518;28;20054;-77
2023/12/14 02:05:35;;;;;;;17.20;10.38;;;;;;;8.59;55.51;100502.75;4924587;29;20120;-76
2023/12/14 02:08:03;;;;;;;16.83;10.15;;;;;;;8.57;55.87;100499.31;4948338;28;20047;-76
2023/12/14 02:10:31;;;;;;;16.20;9.52;;;;;;;8.57;55.53;100511.09;4953913;28;20035;-76
2023/12/14 02:12:59;;;;;;;15.82;9.50;;;;;;;8.56;55.45;100516.66;4949918;28;20584;-76
2023/12/14 02:15:27;;;;;;;17.65;10.02;;;;;;;8.54;55.55;100521.38;4951185;28;20065;-76
2023/12/14 02:17:55;;;;;;;15.85;9.50;;;;;;;8.52;55.52;100517.91;4949856;28;20468;-77
2023/12/14 02:20:23;;;;;;;15.90;10.13;;;;;;;8.50;55.25;100517.19;4951304;28;20143;-76
2023/12/14 02:22:53;;;;;;;15.10;9.77;;;;;;;8.50;55.40;100525.38;4956785;28;20125;-77
2023/12/14 02:25:23;;;;;;;17.00;9.65;;;;;;;8.48;55.53;100521.91;4933038;29;20071;-75
2023/12/14 02:27:52;;;;;;;15.32;9.65;;;;;;;8.46;55.46;100537.50;4947091;28;20051;-77
2023/12/14 02:30:20;;;;;;;14.85;9.65;;;;;;;8.44;55.33;100539.50;4948913;28;20131;-76
2023/12/14 02:32:48;;;;;;;15.15;9.73;;;;;;;8.42;55.20;100547.84;4951975;28;20043;-76
2023/12/14 02:35:18;;;;;;;15.52;9.68;;;;;;;8.39;55.39;100553.53;4933645;29;20564;-77
2023/12/14 02:37:46;;;;;;;15.85;10.02;;;;;;;8.37;55.08;100554.63;4926085;29;20040;-76
2023/12/14 02:40:15;;;;;;;16.00;10.27;;;;;;;8.36;54.78;100561.09;4930506;29;20051;-76
2023/12/14 02:42:43;;;;;;;15.15;9.40;;;;;;;8.31;55.13;100569.66;4933332;29;20110;-76
2023/12/14 02:45:11;;;;;;;13.48;9.23;;;;;;;8.29;55.16;100568.91;4945964;28;20146;-76
2023/12/14 02:47:39;;;;;;;13.43;8.85;;;;;;;8.26;54.87;100585.50;4943862;28;20047;-76
2023/12/14 02:50:08;;;;;;;13.30;9.02;;;;;;;8.25;54.84;100581.94;4949832;28;20055;-76
2023/12/14 02:52:36;;;;;;;15.35;9.40;;;;;;;8.23;55.06;100583.94;4933653;29;20586;-76
2023/12/14 02:55:05;;;;;;;12.77;8.60;;;;;;;8.21;54.79;100588.63;4948865;28;20464;-77
2023/12/14 02:57:34;;;;;;;11.55;7.63;;;;;;;8.21;55.28;100585.03;4930224;29;20514;-76
2023/12/14 03:00:03;;;;;;;11.45;7.68;;;;;;;8.19;55.34;100596.06;4949615;28;20051;-77
2023/12/14 03:02:31;;;;;;;11.57;7.90;;;;;;;8.18;54.87;100597.03;4927910;29;20154;-76
2023/12/14 03:04:59;;;;;;;10.75;7.07;;;;;;;8.19;54.73;100606.09;4945984;28;20075;-76
2023/12/14 03:07:27;;;;;;;10.15;6.80;;;;;;;8.18;55.12;100607.94;4940654;28;20580;-76
2023/12/14 03:09:55;;;;;;;8.35;5.70;;;;;;;8.18;55.13;100618.84;4948338;28;20517;-76
2023/12/14 03:12:23;;;;;;;9.27;5.97;;;;;;;8.18;54.85;100618.00;4950344;28;20043;-77
2023/12/14 03:14:52;;;;;;;10.10;6.28;;;;;;;8.19;54.97;100623.31;4930124;28;20108;-76
2023/12/14 03:17:20;;;;;;;11.30;6.80;;;;;;;8.17;54.91;100617.16;4952552;28;20055;-76
2023/12/14 03:19:48;;;;;;;9.02;5.85;;;;;;;8.16;54.78;100626.31;4947521;28;20484;-76
2023/12/14 03:22:16;;;;;;;8.35;5.70;;;;;;;8.16;54.78;100626.31;4932719;28;20035;-76
2023/12/14 03:24:44;;;;;;;10.30;6.25;;;;;;;8.14;54.56;100639.19;4935127;29;20043;-76
2023/12/14 03:27:11;;;;;;;10.55;6.65;;;;;;;8.14;54.44;100643.78;4937849;28;20051;-77
2023/12/14 03:29:39;;;;;;;11.63;7.32;;;;;;;8.12;54.76;100641.13;4940539;29;20134;-76
2023/12/14 03:32:09;;;;;;;12.15;7.60;;;;;;;8.13;54.68;100656.53;4940690;28;20051;-76
2023/12/14 03:34:37;;;;;;;15.10;8.57;;;;;;;8.10;54.56;100658.59;4948947;28;20115;-77
2023/12/14 03:37:04;;;;;;;12.65;7.68;;;;;;;8.07;54.61;100662.47;4943030;28;20052;-76
2023/12/14 03:39:32;;;;;;;12.85;8.02;;;;;;;8.06;54.08;100660.72;4953505;28;20043;-76
2023/12/14 03:42:00;;;;;;;12.80;7.90;;;;;;;8.05;54.18;100660.84;4949899;28;20046;-76
2023/12/14 03:44:28;;;;;;;11.77;7.68;;;;;;;8.03;54.45;100669.13;4953155;28;20047;-76
2023/12/14 03:46:57;;;;;;;11.18;7.00;;;;;;;8.02;54.60;100667.38;4947489;28;20052;-75
2023/12/14 03:49:27;;;;;;;12.32;7.70;;;;;;;8.02;54.04;100678.28;4952254;28;20039;-75
2023/12/14 03:51:55;;;;;;;11.30;7.38;;;;;;;8.00;54.33;100671.25;4929950;28;20053;-77
2023/12/14 03:54:22;;;;;;;11.73;7.32;;;;;;;7.99;54.72;100686.72;4957448;28;20488;-77
2023/12/14 03:56:50;;;;;;;12.65;7.72;;;;;;;7.98;54.72;100678.66;4964655;28;20058;-77
2023/12/14 03:59:18;;;;;;;13.68;8.32;;;;;;;7.98;54.84;100687.72;4950909;28;20436;-75
2023/12/14 04:01:46;;;;;;;14.43;8.30;;;;;;;7.98;54.66;100689.56;4934546;29;20058;-76
2023/12/14 04:04:14;;;;;;;13.57;8.35;;;;;;;7.98;54.86;100698.63;4932679;28;20043;-76
2023/12/14 04:06:44;;;;;;;12.52;7.43;;;;;;;7.99;54.58;100703.09;4964675;28;20892;-76
2023/12/14 04:09:12;;;;;;;13.15;8.27;;;;;;;7.98;54.83;100714.09;4951970;28;20135;-76
2023/12/14 04:11:40;;;;;;;12.02;7.55;;;;;;;7.98;54.92;100711.38;4938366;29;20136;-77
2023/12/14 04:14:09;;;;;;;12.85;8.07;;;;;;;7.97;54.61;100718.69;4953016;28;20047;-76
2023/12/14 04:16:37;;;;;;;12.80;7.55;;;;;;;7.97;54.55;100721.41;4952188;28;20039;-76
2023/12/14 04:19:09;;;;;;;12.57;8.00;;;;;;;7.98;54.29;100725.88;4932413;28;20046;-76
2023/12/14 04:21:38;;;;;;;;;;;;;;;7.72;55.14;100730.63;4946141;28;20134;-76
2023/12/14 04:24:09;;;;;;;12.00;7.13;;;;;;;7.92;54.59;100735.41;4950326;28;20472;-76
2023/12/14 04:26:37;;;;;;;11.93;7.05;;;;;;;7.94;54.38;100737.97;4955485;28;20707;-76
2023/12/14 04:29:05;;;;;;;11.88;6.75;;;;;;;7.92;54.40;100740.84;4953097;28;20501;-76
2023/12/14 04:31:34;;;;;;;11.75;7.15;;;;;;;7.92;54.32;100750.88;4947477;28;20047;-76
2023/12/14 04:34:02;;;;;;;12.15;7.45;;;;;;;7.91;54.01;100750.00;4934849;28;20043;-77
2023/12/14 04:36:30;;;;;;;13.38;7.60;;;;;;;7.91;54.02;100751.88;4951420;28;20051;-77
2023/12/14 04:38:58;;;;;;;13.05;7.93;;;;;;;7.90;54.26;100744.69;4951041;28;20161;-76
2023/12/14 04:41:27;;;;;;;14.98;9.35;;;;;;;7.90;53.96;100753.72;4953742;28;20046;-76
2023/12/14 04:43:55;;;;;;;13.55;8.32;;;;;;;7.89;54.39;100757.44;4927877;29;20047;-76
2023/12/14 04:46:23;;;;;;;13.98;8.30;;;;;;;7.89;54.45;100762.88;4950549;28;20408;-77
2023/12/14 04:48:51;;;;;;;14.48;8.77;;;;;;;7.89;54.70;100762.00;4951362;28;20039;-76
2023/12/14 04:51:19;;;;;;;12.55;7.90;;;;;;;7.88;54.58;100769.31;4957791;28;20445;-76
2023/12/14 04:53:47;;;;;;;13.93;8.48;;;;;;;7.88;54.09;100773.91;4943126;28;20049;-76
2023/12/14 04:56:15;;;;;;;15.50;8.98;;;;;;;7.88;54.27;100768.44;4953407;28;20118;-76
2023/12/14 04:58:44;;;;;;;16.73;8.93;;;;;;;7.88;53.48;100782.06;4951745;28;20039;-76
2023/12/14 05:01:12;;;;;;;19.23;10.00;;;;;;;7.86;54.07;100786.75;4949107;28;20074;-77
2023/12/14 05:03:40;;;;;;;19.05;10.13;;;;;;;7.83;53.77;100790.63;4951990;28;20050;-76
2023/12/14 05:06:08;;;;;;;18.20;10.70;;;;;;;7.81;53.92;100792.59;4934227;28;20043;-76
2023/12/14 05:08:36;;;;;;;17.90;9.98;;;;;;;7.80;53.33;100795.41;4951050;28;20049;-76
2023/12/14 05:11:05;;;;;;;21.40;10.70;;;;;;;7.78;53.51;100798.25;4925349;28;20036;-76
2023/12/14 05:13:33;;;;;;;19.38;10.85;;;;;;;7.76;53.75;100797.53;4923159;29;20103;-75
2023/12/14 05:16:02;;;;;;;22.98;11.77;;;;;;;7.77;53.49;100804.69;4936561;28;20054;-76
2023/12/14 05:18:30;;;;;;;18.75;10.98;;;;;;;7.74;53.82;100807.66;4945986;28;20134;-76
2023/12/14 05:20:58;;;;;;;23.10;12.48;;;;;;;7.73;53.63;100816.81;4956218;28;20047;-76
2023/12/14 05:23:26;;;;;;;20.00;11.13;;;;;;;7.71;53.58;100818.78;4952322;28;20077;-76
2023/12/14 05:25:54;;;;;;;20.15;11.45;;;;;;;7.71;53.56;100815.19;4945158;28;20054;-76
2023/12/14 05:28:22;;;;;;;21.75;11.52;;;;;;;7.69;53.73;100820.75;4934998;28;20531;-77
2023/12/14 05:30:50;;;;;;;18.58;11.70;;;;;;;7.68;53.77;100829.94;4924599;29;20134;-76
2023/12/14 05:33:20;;;;;;;18.38;9.88;;;;;;;7.68;53.56;100838.09;4953927;28;20526;-77
2023/12/14 05:35:48;;;;;;;17.58;9.60;;;;;;;7.65;53.95;100835.59;4948250;28;20051;-76
2023/12/14 05:38:16;;;;;;;17.05;8.98;;;;;;;7.66;54.22;100842.78;4929812;28;20105;-76
2023/12/14 05:40:44;;;;;;;15.75;8.43;;;;;;;7.67;54.13;100849.13;4948968;28;20108;-76
2023/12/14 05:43:12;;;;;;;16.00;9.38;;;;;;;7.67;54.16;100846.38;4929826;28;20133;-76
2023/12/14 05:45:41;;;;;;;14.32;8.25;;;;;;;7.68;54.08;100848.13;4952187;28;20051;-75
2023/12/14 05:48:08;;;;;;;13.82;8.02;;;;;;;7.69;54.38;100852.56;4945768;28;20042;-76
2023/12/14 05:50:38;;;;;;;12.13;7.40;;;;;;;7.70;54.41;100855.19;4945087;28;20027;-75
2023/12/14 05:53:06;;;;;;;12.63;7.53;;;;;;;7.71;54.62;100864.22;4943474;28;20084;-76
2023/12/14 05:55:34;;;;;;;14.63;8.10;;;;;;;7.72;54.36;100865.97;4950717;28;20423;-74
2023/12/14 05:58:03;;;;;;;13.75;7.72;;;;;;;7.73;54.49;100870.44;4927104;28;20052;-74
2023/12/14 06:00:31;;;;;;;14.10;8.60;;;;;;;7.73;54.65;100876.75;4928102;29;20444;-74
2023/12/14 06:02:59;;;;;;;12.70;7.82;;;;;;;7.75;54.42;100884.81;4946659;28;20047;-74
2023/12/14 06:05:27;;;;;;;13.75;8.70;;;;;;;7.75;53.88;100888.41;4950393;28;20099;-74
2023/12/14 06:07:57;;;;;;;13.85;7.93;;;;;;;7.77;54.07;100893.72;4944284;28;20412;-74
2023/12/14 06:10:25;;;;;;;15.32;7.78;;;;;;;7.76;54.02;100901.06;4944155;28;20062;-75
2023/12/14 06:12:53;;;;;;;13.57;8.15;;;;;;;7.76;54.39;100902.91;4940324;28;20390;-73
2023/12/14 06:15:21;;;;;;;12.95;8.20;;;;;;;7.77;54.52;100908.22;4965756;28;20547;-77
2023/12/14 06:17:49;;;;;;;13.52;8.30;;;;;;;7.77;54.17;100913.66;4926890;28;20047;-74
2023/12/14 06:20:18;;;;;;;13.27;7.85;;;;;;;7.79;54.26;100921.72;4953165;28;20035;-73
2023/12/14 06:25:29;;;;;;;16.80;8.40;;;;;;;7.79;54.09;100935.34;4914343;29;20095;-75
2023/12/14 06:27:57;;;;;;;15.32;8.75;;;;;;;7.79;54.15;100940.81;4912986;29;20445;-75
2023/12/14 06:30:25;;;;;;;15.52;8.50;;;;;;;7.79;54.26;100947.13;4905614;29;21519;-75
2023/12/14 06:32:53;;;;;;;15.43;8.60;;;;;;;7.79;54.47;100959.88;4927971;29;20055;-75
2023/12/14 06:35:21;;;;;;;15.45;8.82;;;;;;;7.80;54.13;100964.34;4910349;29;20075;-75
2023/12/14 06:37:49;;;;;;;16.05;9.45;;;;;;;7.80;54.40;100969.78;4911203;29;20048;-75
2023/12/14 06:40:19;;;;;;;15.45;9.18;;;;;;;7.79;53.96;100974.38;4910908;29;20554;-74
2023/12/14 06:42:49;;;;;;;17.35;8.88;;;;;;;7.80;53.92;100981.56;4911137;29;20056;-75
2023/12/14 06:45:18;;;;;;;14.80;8.43;;;;;;;7.78;54.20;100988.97;4907241;29;20051;-75
2023/12/14 06:47:50;;;;;;;15.90;9.15;;;;;;;7.79;54.22;100993.44;4909492;29;20070;-75
2023/12/14 06:50:18;;;;;;;14.65;9.32;;;;;;;7.77;54.27;101002.69;4920935;29;20083;-74
2023/12/14 06:52:46;;;;;;;16.63;8.57;;;;;;;7.75;53.92;101000.13;4928240;29;20063;-75
2023/12/14 06:55:15;;;;;;;16.50;8.38;;;;;;;7.76;54.17;101000.97;4921678;29;20138;-75
2023/12/14 06:57:44;;;;;;;15.25;8.32;;;;;;;7.75;53.95;101011.00;4910745;29;20509;-74
2023/12/14 07:00:15;;;;;;;14.98;7.68;;;;;;;7.76;53.63;101011.88;4916054;29;20532;-75
2023/12/14 07:02:44;;;;;;;12.93;7.68;;;;;;;7.75;53.93;101010.13;4922207;29;20043;-75
2023/12/14 07:05:12;;;;;;;13.35;7.68;;;;;;;7.74;53.93;101019.28;4908576;29;20056;-75
2023/12/14 07:07:41;;;;;;;17.58;8.77;;;;;;;7.73;53.84;101018.41;4908348;29;20131;-75
2023/12/14 07:10:09;;;;;;;13.80;8.07;;;;;;;7.74;53.57;101027.47;4928383;29;20047;-75
2023/12/14 07:12:37;;;;;;;16.13;8.77;;;;;;;7.72;53.53;101023.97;4919036;29;20052;-74
2023/12/14 07:15:07;;;;;;;15.48;8.50;;;;;;;7.72;54.09;101035.75;4928609;29;20055;-76
2023/12/14 07:17:36;;;;;;;17.45;9.88;;;;;;;7.72;53.56;101034.88;4923839;29;20051;-74
2023/12/14 07:20:06;;;;;;;22.08;11.48;;;;;;;7.71;53.74;101046.75;4899599;29;20048;-74
2023/12/14 07:22:34;;;;;;;21.48;11.25;;;;;;;7.69;53.59;101055.03;4923123;29;20043;-75
2023/12/14 07:25:03;;;;;;;23.08;12.20;;;;;;;7.70;53.79;101064.06;4911820;29;20308;-75
2023/12/14 07:27:31;;;;;;;22.25;11.82;;;;;;;7.69;53.88;101065.91;4920064;29;20709;-75
2023/12/14 07:29:59;;;;;;;24.50;13.25;;;;;;;7.69;53.47;101067.78;4920042;29;20080;-75
2023/12/14 07:32:27;;;;;;;23.48;13.40;;;;;;;7.68;53.48;101074.22;4906203;29;20406;-75
2023/12/14 07:34:57;;;;;;;25.40;14.38;;;;;;;7.68;53.28;101080.56;4926299;29;20075;-75
2023/12/14 07:37:25;;;;;;;23.15;14.02;;;;;;;7.65;53.21;101097.09;4922523;29;20230;-75
2023/12/14 07:39:53;;;;;;;27.20;14.63;;;;;;;7.65;52.89;101098.97;4908008;29;20048;-76
2023/12/14 07:42:21;;;;;;;26.73;13.73;;;;;;;7.63;53.29;101099.06;4920758;29;20099;-74
2023/12/14 07:44:49;;;;;;;26.30;14.05;;;;;;;7.61;53.41;101102.88;4900124;29;20070;-75
2023/12/14 07:47:17;;;;;;;28.38;13.85;;;;;;;7.60;53.33;101117.50;4909282;29;20101;-75
2023/12/14 07:49:45;;;;;;;23.27;12.82;;;;;;;7.56;52.79;101109.53;4920637;29;20079;-75
2023/12/14 07:52:15;;;;;;;25.30;13.43;;;;;;;7.56;52.92;101117.69;4917503;29;21353;-75
2023/12/14 07:54:42;;;;;;;23.33;12.88;;;;;;;7.52;52.91;101118.00;4905720;29;20085;-76
2023/12/14 07:57:10;;;;;;;22.30;12.20;;;;;;;7.52;52.72;101120.72;4927241;29;20126;-75
2023/12/14 07:59:41;;;;;;;22.90;11.65;;;;;;;7.52;52.61;101120.72;4913634;29;20546;-75
2023/12/14 08:02:09;;;;;;;23.35;12.10;;;;;;;7.49;52.67;101131.84;4905127;29;20087;-77
2023/12/14 08:04:37;;;;;;;22.60;12.23;;;;;;;7.47;52.77;101126.50;4910602;29;20040;-73
2023/12/14 08:07:05;;;;;;;22.55;12.25;;;;;;;7.47;53.16;101133.81;4918687;29;20166;-72
2023/12/14 08:09:36;;;;;;;22.02;12.35;;;;;;;7.48;52.93;101143.72;4908783;29;20155;-73
2023/12/14 08:12:08;;;;;;;23.20;12.55;;;;;;;7.44;53.20;101145.78;4926195;29;20042;-72
2023/12/14 08:14:41;;;;;;;22.30;12.67;;;;;;;7.43;53.04;101154.09;4932725;29;20036;-74
2023/12/14 08:17:12;;;;;;;24.85;13.07;;;;;;;7.45;53.47;101160.28;4922202;29;20044;-72
2023/12/14 08:19:48;;;;;;;24.27;13.40;;;;;;;7.46;53.16;101162.88;4931537;29;20031;-73
2023/12/14 08:22:16;;;;;;;25.92;13.13;;;;;;;7.41;53.38;101162.34;4918783;29;20111;-73
2023/12/14 08:24:45;;;;;;;23.10;12.57;;;;;;;7.46;52.94;101175.63;4919250;29;20041;-73
2023/12/14 08:27:13;;;;;;;23.75;13.38;;;;;;;7.44;52.85;101189.34;4925564;29;20063;-72
2023/12/14 08:29:41;;;;;;;22.42;12.75;;;;;;;7.43;53.03;101190.34;4910815;29;20043;-72
2023/12/14 08:32:09;;;;;;;25.15;13.65;;;;;;;7.42;52.86;101194.06;4926144;29;20131;-72
2023/12/14 08:34:37;;;;;;;24.38;13.48;;;;;;;7.41;53.06;101203.19;4910851;29;20075;-72
2023/12/14 08:37:05;;;;;;;25.70;14.23;;;;;;;7.40;52.76;101204.19;4907880;29;20044;-73
2023/12/14 08:39:33;;;;;;;23.10;13.65;;;;;;;7.38;52.93;101206.13;4928735;29;20539;-72
2023/12/14 08:42:03;;;;;;;25.65;14.10;;;;;;;7.39;53.05;101212.44;4911496;29;20441;-72
2023/12/14 08:44:30;;;;;;;25.33;13.55;;;;;;;7.38;52.92;101221.59;4930697;29;20126;-73
2023/12/14 08:46:58;;;;;;;25.75;14.05;;;;;;;7.37;52.89;101234.31;4925404;29;20067;-72
2023/12/14 08:49:26;;;;;;;26.08;14.13;;;;;;;7.38;53.10;101235.19;4927163;29;20694;-72
2023/12/14 08:51:54;;;;;;;21.08;12.00;;;;;;;7.36;52.80;101239.88;4905625;29;20331;-72
2023/12/14 08:54:22;;;;;;;24.40;13.95;;;;;;;7.36;52.66;101239.88;4922942;29;20527;-72
2023/12/14 08:56:50;;;;;;;24.88;13.77;;;;;;;7.36;53.00;101250.75;4923839;29;20130;-71
2023/12/14 08:59:20;;;;;;;25.83;14.15;;;;;;;7.37;52.94;101257.94;4924591;29;20135;-72
2023/12/14 09:01:48;;;;;;;26.38;14.77;;;;;;;7.36;52.78;101262.53;4922876;29;20100;-75
2023/12/14 09:04:17;;;;;;;25.85;13.75;;;;;;;7.34;53.06;101261.78;4915221;29;20143;-73
2023/12/14 09:06:45;;;;;;;29.48;14.80;;;;;;;7.36;52.77;101275.25;4923994;29;20123;-74
2023/12/14 09:09:13;;;;;;;27.95;14.95;;;;;;;7.33;52.47;101270.03;4912850;29;20055;-75
2023/12/14 09:11:41;;;;;;;26.75;14.55;;;;;;;7.33;52.54;101280.94;4913993;29;20624;-75
2023/12/14 09:14:09;;;;;;;27.38;14.80;;;;;;;7.31;52.61;101289.19;4932730;29;20044;-75
2023/12/14 09:16:38;;;;;;;28.02;15.00;;;;;;;7.31;52.41;101288.31;4912146;29;20052;-76
2023/12/14 09:19:06;;;;;;;24.80;13.55;;;;;;;7.29;52.80;101287.56;4931840;29;20556;-75
2023/12/14 09:21:34;;;;;;;27.63;15.30;;;;;;;7.28;52.37;101294.84;4913600;29;20044;-75
2023/12/14 09:24:13;;;;;;;26.42;15.18;;;;;;;7.27;52.50;101293.09;4912077;29;20413;-75
2023/12/14 09:26:41;;;;;;;25.10;14.35;;;;;;;7.26;52.16;101296.81;4913402;29;20048;-75
2023/12/14 09:29:09;;;;;;;24.45;14.02;;;;;;;7.24;52.42;101296.03;4917634;29;20110;-75
2023/12/14 09:31:42;;;;;;;22.75;13.20;;;;;;;7.26;52.09;101299.53;4928620;29;20060;-75
2023/12/14 09:34:10;;;;;;;24.77;14.00;;;;;;;7.23;52.34;101307.03;4909909;29;20036;-75
2023/12/14 09:36:38;;;;;;;25.27;14.05;;;;;;;7.24;52.45;101304.22;4908774;29;20517;-76
2023/12/14 09:39:10;;;;;;;23.30;13.93;;;;;;;7.22;52.34;101303.44;4915200;29;20058;-75
2023/12/14 09:41:39;;;;;;;24.55;14.45;;;;;;;7.20;52.64;101313.53;4929775;29;20036;-75
2023/12/14 09:44:08;;;;;;;24.75;14.57;;;;;;;7.20;52.19;101314.41;4916888;29;20043;-75
2023/12/14 09:46:41;;;;;;;27.38;14.68;;;;;;;7.22;52.49;101317.03;4925571;29;20051;-75
2023/12/14 09:49:11;;;;;;;25.58;15.07;;;;;;;7.22;52.42;101319.75;4912154;29;20067;-75
2023/12/14 09:51:40;;;;;;;28.58;15.57;;;;;;;7.21;52.79;101323.44;4925221;29;20063;-75
2023/12/14 09:54:08;;;;;;;28.90;16.42;;;;;;;7.21;52.98;101323.44;4922012;29;20043;-75
2023/12/14 09:56:45;;;;;;;30.05;16.77;;;;;;;7.22;52.71;101327.94;4907424;29;20040;-74
2023/12/14 09:59:13;;;;;;;30.63;16.42;;;;;;;7.23;52.69;101328.81;4929378;29;20055;-75
2023/12/14 10:01:43;;;;;;;31.23;15.82;;;;;;;7.25;52.95;101340.47;4908544;29;20162;-75
2023/12/14 10:04:15;;;;;;;28.88;16.85;;;;;;;7.25;53.13;101338.63;4932890;29;20051;-74
2023/12/14 10:06:45;;;;;;;27.75;15.80;;;;;;;7.27;52.54;101346.69;4912539;29;20439;-74
2023/12/14 10:09:15;;;;;;;27.80;15.35;;;;;;;7.26;52.68;101350.41;4902660;29;20102;-74
2023/12/14 10:11:44;;;;;;;26.98;15.30;;;;;;;7.27;52.85;101352.16;4926164;29;20091;-74
2023/12/14 10:14:20;;;;;;;27.67;15.73;;;;;;;7.29;52.22;101363.78;4925733;29;20060;-74
2023/12/14 10:16:50;;;;;;;25.85;15.13;;;;;;;7.27;52.59;101360.31;4926343;29;20139;-75
2023/12/14 10:19:20;;;;;;;26.50;15.02;;;;;;;7.26;52.69;101369.44;4921653;29;20142;-75
2023/12/14 10:21:49;;;;;;;26.90;15.00;;;;;;;7.27;52.57;101382.94;4924176;29;20040;-75
2023/12/14 10:24:19;;;;;;;25.45;14.35;;;;;;;7.27;52.74;101388.38;4908682;29;20071;-75
2023/12/14 10:26:48;;;;;;;23.33;13.85;;;;;;;7.27;52.33;101395.69;4921210;29;20096;-74
2023/12/14 10:29:16;;;;;;;22.55;13.60;;;;;;;7.27;52.38;101393.81;4908956;29;20079;-75
2023/12/14 10:31:44;;;;;;;22.17;13.10;;;;;;;7.27;52.33;101399.28;4931245;29;20047;-75
2023/12/14 10:34:14;;;;;;;20.65;11.73;;;;;;;7.29;52.28;101412.78;4914338;29;20065;-75
2023/12/14 10:36:44;;;;;;;23.40;12.93;;;;;;;7.28;52.45;101411.91;4929469;29;20044;-75
2023/12/14 10:39:17;;;;;;;23.08;12.90;;;;;;;7.30;52.41;101414.53;4913981;29;20054;-75
2023/12/14 10:41:48;;;;;;;23.95;12.82;;;;;;;7.29;52.44;101418.22;4935815;29;20046;-74
2023/12/14 10:44:27;;;;;;;23.67;14.23;;;;;;;7.29;51.92;101427.28;4927806;29;20047;-74
2023/12/14 10:47:17;;;;;;;24.50;14.05;;;;;;;7.28;52.37;101427.38;4909386;29;20051;-75
2023/12/14 10:49:50;;;;;;;22.35;12.73;;;;;;;7.29;51.67;101419.09;4903694;29;20040;-75
2023/12/14 10:52:22;;;;;;;22.58;12.90;;;;;;;7.29;51.93;101431.84;4916409;29;20050;-74
2023/12/14 10:54:55;;;;;;;19.48;11.90;;;;;;;7.28;51.95;101421.94;4934323;29;20052;-75
2023/12/14 10:57:23;;;;;;;18.70;11.65;;;;;;;7.24;52.04;101429.44;4923694;29;20048;-74
2023/12/14 10:59:58;;;;;;;18.10;10.75;;;;;;;7.27;52.19;101426.50;4921248;29;20043;-75
2023/12/14 11:02:26;;;;;;;19.15;11.35;;;;;;;7.25;52.19;101433.03;4908272;29;20059;-74
2023/12/14 11:05:05;;;;;;;18.35;11.20;;;;;;;7.28;51.75;101433.69;4930737;29;20051;-73
2023/12/14 11:07:47;;;;;;;17.58;10.20;;;;;;;7.27;52.00;101442.84;4916202;29;20043;-75
2023/12/14 11:10:22;;;;;;;18.10;10.10;;;;;;;7.25;52.64;101443.94;4895066;29;20114;-74
2023/12/14 11:13:02;;;;;;;19.92;11.50;;;;;;;7.27;52.39;101444.72;4920306;29;20051;-75
2023/12/14 11:15:33;;;;;;;18.73;10.75;;;;;;;7.25;52.55;101447.53;4915387;29;20042;-75
2023/12/14 11:18:24;;;;;;;16.88;10.73;;;;;;;7.26;51.90;101448.41;4931122;29;20039;-75
2023/12/14 11:20:58;;;;;;;16.17;9.52;;;;;;;7.26;52.04;101459.28;4906919;29;20082;-76
2023/12/14 11:23:36;;;;;;;15.60;10.18;;;;;;;7.26;51.25;101462.88;4922673;29;20690;-76
2023/12/14 11:26:06;;;;;;;15.80;9.50;;;;;;;7.25;52.01;101468.44;4932611;29;20518;-73
2023/12/14 11:28:37;;;;;;;16.52;9.82;;;;;;;7.24;51.46;101477.56;4929049;29;20525;-75
2023/12/14 11:31:07;;;;;;;16.15;9.15;;;;;;;7.22;51.97;101485.81;4928183;29;20060;-75
2023/12/14 11:33:36;;;;;;;15.68;9.52;;;;;;;7.21;51.72;101481.34;4935739;29;20043;-75